Time;durP1;ratioP1;P1;durP2;ratioP2;P2;SDS_P1;SDS_P2;PMS_P1;PMS_P2;Temp;Humidity;BMP_temperature;BMP_pressure;BME280_temperature;BME280_humidity;BME280_pressure;Samples;Min_cycle;Max_cycle;Signal;HPM_P1;HPM_P2
2023/06/04 00:00:23;;;;;;;9.70;3.50;;;;;;;19.47;66.70;99748.94;5036639;28;20033;-71
2023/06/04 00:02:49;;;;;;;8.80;3.53;;;;;;;19.49;66.36;99745.25;5038143;28;20026;-71
2023/06/04 00:05:14;;;;;;;8.10;3.53;;;;;;;19.48;67.23;99756.88;5036811;28;20029;-71
2023/06/04 00:07:40;;;;;;;7.43;3.77;;;;;;;19.45;67.11;99750.81;5036116;28;20268;-71
2023/06/04 00:10:06;;;;;;;8.53;3.83;;;;;;;19.42;67.54;99751.84;5036503;28;20030;-71
2023/06/04 00:12:32;;;;;;;8.98;3.95;;;;;;;19.43;67.11;99755.38;5036283;28;20088;-71
2023/06/04 00:14:57;;;;;;;9.13;3.70;;;;;;;19.45;67.14;99741.00;5036316;28;20081;-71
2023/06/04 00:17:23;;;;;;;8.98;3.33;;;;;;;19.43;66.57;99742.91;5036143;28;20026;-71
2023/06/04 00:19:48;;;;;;;8.67;3.90;;;;;;;19.36;67.22;99741.44;5040686;28;20048;-71
2023/06/04 00:22:13;;;;;;;8.70;3.57;;;;;;;19.40;66.92;99737.69;5038020;28;20482;-71
2023/06/04 00:24:40;;;;;;;7.50;3.60;;;;;;;19.45;66.87;99735.66;5018444;28;20028;-71
2023/06/04 00:27:07;;;;;;;9.93;3.83;;;;;;;19.41;66.66;99728.75;5036155;28;20347;-71
2023/06/04 00:29:33;;;;;;;9.35;4.00;;;;;;;19.43;66.56;99726.88;5015034;28;20065;-71
2023/06/04 00:31:58;;;;;;;10.07;3.80;;;;;;;19.43;66.35;99732.22;5016209;28;20032;-71
2023/06/04 00:34:25;;;;;;;10.48;3.90;;;;;;;19.40;66.78;99723.47;5036277;28;20148;-71
2023/06/04 00:36:50;;;;;;;10.27;3.70;;;;;;;19.39;66.78;99725.28;5035891;28;20403;-71
2023/06/04 00:39:16;;;;;;;7.50;3.50;;;;;;;19.40;66.62;99729.66;5036458;28;20026;-71
2023/06/04 00:41:41;;;;;;;9.10;3.70;;;;;;;19.28;67.66;99732.97;5017907;28;20180;-71
2023/06/04 00:44:07;;;;;;;9.97;3.90;;;;;;;19.29;67.50;99729.34;5035898;28;20029;-71
2023/06/04 00:46:37;;;;;;;13.93;4.80;;;;;;;19.26;67.98;99732.16;5017816;28;20029;-71
2023/06/04 00:49:04;;;;;;;9.73;4.50;;;;;;;19.22;67.88;99729.66;5036155;28;20052;-71
2023/06/04 00:51:31;;;;;;;9.43;4.10;;;;;;;19.21;67.74;99727.03;5021584;28;20406;-71
2023/06/04 00:53:58;;;;;;;11.02;4.18;;;;;;;19.16;67.89;99729.94;5039600;28;20877;-71
2023/06/04 00:56:24;;;;;;;8.60;4.40;;;;;;;19.21;67.97;99733.25;5039491;28;20849;-71
2023/06/04 00:58:49;;;;;;;10.87;5.00;;;;;;;19.21;68.10;99727.94;5039483;28;20025;-71
2023/06/04 01:01:57;;;;;;;8.57;4.53;;;;;;;19.17;68.73;99722.81;5040842;28;20040;-71
2023/06/04 01:04:49;;;;;;;9.32;4.03;;;;;;;19.17;68.24;99734.34;5028736;28;20485;-71
2023/06/04 01:07:16;;;;;;;10.63;4.43;;;;;;;19.22;67.56;99727.00;5038865;28;20099;-71
2023/06/04 01:09:43;;;;;;;8.77;4.03;;;;;;;19.29;67.83;99734.69;5039145;28;20397;-71
2023/06/04 01:12:10;;;;;;;9.18;4.25;;;;;;;19.35;67.30;99726.38;5021307;28;20132;-71
2023/06/04 01:14:36;;;;;;;7.70;3.95;;;;;;;19.40;66.92;99727.00;5039004;28;20018;-71
2023/06/04 01:17:36;;;;;;;9.70;4.33;;;;;;;19.41;67.25;99720.75;5038938;28;20064;-71
2023/06/04 01:20:04;;;;;;;8.43;4.30;;;;;;;19.42;66.82;99732.28;5038699;28;20056;-71
2023/06/04 01:22:37;;;;;;;10.63;3.92;;;;;;;19.41;66.79;99736.75;5038695;28;20022;-71
2023/06/04 01:25:05;;;;;;;7.45;3.97;;;;;;;19.39;67.16;99733.28;5019147;28;20025;-71
2023/06/04 01:27:32;;;;;;;9.13;4.07;;;;;;;19.40;66.87;99731.50;5038961;28;20021;-71
2023/06/04 01:30:00;;;;;;;8.53;4.30;;;;;;;19.42;66.68;99734.94;5020877;28;20036;-71
2023/06/04 01:32:26;;;;;;;10.35;3.97;;;;;;;19.42;66.69;99727.81;5038725;28;20382;-71
2023/06/04 01:34:52;;;;;;;10.63;4.00;;;;;;;19.42;66.87;99730.47;5038624;28;20114;-71
2023/06/04 01:37:18;;;;;;;9.80;4.57;;;;;;;19.41;66.69;99725.22;5045206;28;20021;-71
2023/06/04 01:39:43;;;;;;;8.27;3.60;;;;;;;19.40;66.52;99727.00;5043105;28;20017;-71
2023/06/04 01:42:09;;;;;;;8.68;4.00;;;;;;;19.40;66.39;99727.00;5038249;28;20025;-71
2023/06/04 01:44:34;;;;;;;8.77;3.97;;;;;;;19.37;66.32;99737.84;5038387;28;20036;-71
2023/06/04 01:47:00;;;;;;;9.20;4.07;;;;;;;19.36;66.73;99725.44;5016986;28;20511;-71
2023/06/04 01:49:25;;;;;;;9.63;4.80;;;;;;;19.33;66.59;99720.25;5017413;28;20402;-71
2023/06/04 01:51:51;;;;;;;10.83;4.50;;;;;;;19.28;66.35;99719.59;5018486;28;20037;-71
2023/06/04 01:54:17;;;;;;;8.57;4.30;;;;;;;19.21;66.91;99727.03;5018818;28;20506;-71
2023/06/04 01:56:43;;;;;;;9.38;4.03;;;;;;;19.18;66.70;99733.41;5018464;28;20058;-72
2023/06/04 01:59:11;;;;;;;11.40;4.78;;;;;;;19.18;66.63;99721.88;5018473;28;20172;-71
2023/06/04 02:01:37;;;;;;;14.45;4.65;;;;;;;19.17;66.67;99731.69;5018162;28;20037;-71
2023/06/04 02:04:03;;;;;;;12.70;4.30;;;;;;;19.14;66.82;99726.47;5018529;28;20034;-71
2023/06/04 02:06:29;;;;;;;9.93;4.60;;;;;;;19.15;66.67;99728.19;5018550;28;20026;-71
2023/06/04 02:08:55;;;;;;;7.85;4.32;;;;;;;19.17;66.85;99731.69;5018318;28;20041;-71
2023/06/04 02:11:21;;;;;;;8.67;4.70;;;;;;;19.17;66.99;99725.47;5018379;28;20025;-72
2023/06/04 02:13:46;;;;;;;9.27;4.30;;;;;;;19.16;66.77;99735.25;5018291;28;20057;-72
2023/06/04 02:16:12;;;;;;;10.70;4.47;;;;;;;19.16;66.94;99735.25;5018029;28;20057;-71
2023/06/04 02:18:37;;;;;;;9.47;4.43;;;;;;;19.16;66.67;99735.25;5018041;28;20053;-71
2023/06/04 02:21:03;;;;;;;10.17;4.90;;;;;;;19.13;66.83;99739.91;5018266;28;20017;-71
2023/06/04 02:23:28;;;;;;;10.02;4.00;;;;;;;19.05;66.96;99726.94;5018091;28;20053;-71
2023/06/04 02:25:56;;;;;;;9.23;3.87;;;;;;;19.03;67.03;99736.81;5018149;28;20087;-71
2023/06/04 02:28:22;;;;;;;10.40;4.68;;;;;;;19.01;67.03;99738.69;5018120;28;20064;-71
2023/06/04 02:30:47;;;;;;;8.17;4.03;;;;;;;18.99;67.26;99736.09;5017930;28;20029;-71
2023/06/04 02:33:14;;;;;;;12.30;5.25;;;;;;;18.96;67.41;99738.03;5016795;28;20022;-71
2023/06/04 02:35:40;;;;;;;9.98;5.82;;;;;;;18.76;68.24;99740.66;5018212;28;20069;-71
2023/06/04 02:38:06;;;;;;;13.30;5.40;;;;;;;18.70;68.91;99748.13;5026336;28;20025;-71
2023/06/04 02:40:31;;;;;;;9.82;5.05;;;;;;;18.73;68.58;99738.16;5006880;28;20509;-71
2023/06/04 02:42:57;;;;;;;10.10;5.47;;;;;;;18.75;68.38;99735.44;5017733;28;20475;-71
2023/06/04 02:45:23;;;;;;;13.27;5.37;;;;;;;18.79;68.44;99742.34;5018003;28;20049;-71
2023/06/04 02:47:48;;;;;;;11.32;5.65;;;;;;;18.75;68.56;99738.09;5016245;28;20077;-71
2023/06/04 02:50:17;;;;;;;11.60;5.83;;;;;;;18.75;68.59;99730.09;5016533;28;20037;-72
2023/06/04 02:52:43;;;;;;;9.55;5.30;;;;;;;18.75;68.64;99735.44;5017422;28;20049;-71
2023/06/04 02:55:12;;;;;;;9.18;5.22;;;;;;;18.77;68.71;99733.53;5017591;28;20076;-71
2023/06/04 02:57:41;;;;;;;12.02;5.22;;;;;;;18.79;69.06;99732.53;5017527;28;20207;-71
2023/06/04 03:00:12;;;;;;;13.90;5.13;;;;;;;18.83;68.78;99737.75;5017344;28;20034;-71
2023/06/04 03:02:46;;;;;;;12.00;5.60;;;;;;;18.88;68.71;99736.56;5018739;28;20033;-71
2023/06/04 03:05:13;;;;;;;10.60;5.38;;;;;;;18.92;68.69;99737.28;5017587;28;20617;-71
2023/06/04 03:07:42;;;;;;;10.95;5.50;;;;;;;18.96;68.61;99740.69;5016948;28;20025;-71
2023/06/04 03:10:09;;;;;;;13.15;5.53;;;;;;;18.97;68.83;99740.59;5017645;28;20069;-71
2023/06/04 03:12:35;;;;;;;11.32;5.38;;;;;;;18.99;68.43;99740.56;5016878;28;20022;-71
2023/06/04 03:15:02;;;;;;;13.47;5.30;;;;;;;18.98;68.86;99733.47;5017394;28;20022;-71
2023/06/04 03:17:27;;;;;;;10.85;5.22;;;;;;;19.02;68.53;99737.75;5016208;28;20029;-72
2023/06/04 03:19:53;;;;;;;9.90;5.57;;;;;;;19.03;68.53;99731.47;5017198;28;20056;-71
2023/06/04 03:22:18;;;;;;;12.48;5.53;;;;;;;18.98;68.81;99725.47;5015481;28;20057;-72
2023/06/04 03:24:44;;;;;;;11.97;6.23;;;;;;;18.96;69.04;99733.53;5017098;28;20030;-71
2023/06/04 03:27:10;;;;;;;10.60;5.97;;;;;;;18.90;69.33;99725.81;5017268;28;20017;-71
2023/06/04 03:29:36;;;;;;;13.13;5.53;;;;;;;18.87;69.17;99729.50;5017025;28;20092;-72
2023/06/04 03:32:02;;;;;;;11.13;5.57;;;;;;;18.84;69.50;99726.97;5015818;28;20022;-71
2023/06/04 03:34:31;;;;;;;9.85;5.40;;;;;;;18.85;69.41;99726.03;5015578;28;20040;-72
2023/06/04 03:36:57;;;;;;;13.75;6.20;;;;;;;18.82;69.71;99730.66;5020862;28;20025;-72
2023/06/04 03:39:22;;;;;;;11.25;5.80;;;;;;;18.78;69.67;99730.78;5024539;28;20030;-71
2023/06/04 03:41:51;;;;;;;10.17;5.30;;;;;;;18.77;69.60;99731.72;5016801;28;20033;-71
2023/06/04 03:44:17;;;;;;;13.52;6.40;;;;;;;18.80;69.63;99736.06;5017164;28;20029;-71
2023/06/04 03:46:44;;;;;;;13.55;5.65;;;;;;;18.85;69.33;99720.69;5019438;28;20518;-71
2023/06/04 03:49:10;;;;;;;11.50;5.57;;;;;;;18.87;69.37;99724.16;5036810;28;20034;-71
2023/06/04 03:51:37;;;;;;;11.90;5.97;;;;;;;18.89;69.31;99722.28;5023247;28;20171;-71
2023/06/04 03:54:03;;;;;;;12.13;5.50;;;;;;;18.90;69.09;99729.34;5036825;28;20033;-71
2023/06/04 03:56:28;;;;;;;10.32;5.82;;;;;;;18.89;69.07;99724.94;5036563;28;20040;-71
2023/06/04 03:58:54;;;;;;;12.57;5.50;;;;;;;18.92;69.24;99732.81;5018804;28;20030;-71
2023/06/04 04:01:20;;;;;;;9.65;5.53;;;;;;;18.93;69.28;99723.00;5037294;28;20067;-72
2023/06/04 04:03:49;;;;;;;11.85;5.70;;;;;;;18.97;69.06;99721.06;5036557;28;20033;-71
2023/06/04 04:06:15;;;;;;;12.73;5.75;;;;;;;18.97;69.10;99719.25;5018750;28;20402;-72
2023/06/04 04:08:43;;;;;;;10.90;6.00;;;;;;;18.93;69.08;99718.56;5018458;28;20135;-71
2023/06/04 04:11:16;;;;;;;12.35;5.70;;;;;;;18.88;69.41;99714.38;5036558;28;20083;-71
2023/06/04 04:13:41;;;;;;;9.57;5.20;;;;;;;18.85;69.50;99717.19;5036671;28;20033;-71
2023/06/04 04:16:07;;;;;;;13.07;5.93;;;;;;;18.81;69.52;99719.13;5036414;28;20640;-72
2023/06/04 04:18:33;;;;;;;10.57;5.53;;;;;;;18.77;69.44;99714.88;5036314;28;20541;-71
2023/06/04 04:20:59;;;;;;;11.70;5.57;;;;;;;18.76;69.32;99721.16;5036371;28;20493;-71
2023/06/04 04:23:25;;;;;;;9.53;5.00;;;;;;;18.74;69.55;99723.03;5036326;28;20044;-71
2023/06/04 04:25:53;;;;;;;10.48;5.78;;;;;;;18.75;69.44;99724.75;5039256;28;20021;-71
2023/06/04 04:28:19;;;;;;;8.55;4.93;;;;;;;18.75;69.34;99724.75;5040159;28;20075;-71
2023/06/04 04:30:46;;;;;;;15.07;5.93;;;;;;;18.76;69.24;99723.81;5021672;28;20044;-71
2023/06/04 04:33:15;;;;;;;10.50;5.17;;;;;;;18.79;69.54;99718.34;5022348;28;20183;-72
2023/06/04 04:35:44;;;;;;;13.00;5.00;;;;;;;18.81;69.21;99721.78;5040192;28;20021;-72
2023/06/04 04:38:10;;;;;;;11.15;6.20;;;;;;;18.84;69.33;99724.31;5051474;28;20021;-71
2023/06/04 04:40:36;;;;;;;13.45;6.10;;;;;;;18.84;69.30;99728.78;5040169;28;20113;-72
2023/06/04 04:43:02;;;;;;;16.17;6.30;;;;;;;18.80;69.85;99733.41;5039835;28;20030;-71
2023/06/04 04:45:27;;;;;;;9.40;5.73;;;;;;;18.79;69.66;99732.53;5021953;28;20555;-72
2023/06/04 04:47:53;;;;;;;11.73;6.60;;;;;;;18.80;69.97;99726.25;5039768;28;20493;-71
2023/06/04 04:50:18;;;;;;;11.13;6.47;;;;;;;18.76;69.79;99726.47;5039766;28;20026;-71
2023/06/04 04:52:44;;;;;;;11.30;6.07;;;;;;;18.75;69.86;99727.41;5039490;28;20089;-71
2023/06/04 04:55:11;;;;;;;15.93;6.43;;;;;;;18.75;70.00;99730.94;5039713;28;20066;-71
2023/06/04 04:57:38;;;;;;;16.73;6.25;;;;;;;18.81;69.67;99735.13;5039592;28;20083;-71
2023/06/04 05:00:09;;;;;;;12.60;5.95;;;;;;;18.84;69.64;99740.31;5039701;28;20516;-71
2023/06/04 05:02:35;;;;;;;14.35;6.18;;;;;;;18.90;69.45;99745.34;5040989;28;20104;-72
2023/06/04 05:05:01;;;;;;;12.97;6.23;;;;;;;18.91;69.52;99741.75;5039861;28;20025;-71
2023/06/04 05:07:27;;;;;;;13.77;6.45;;;;;;;18.90;69.79;99748.03;5039218;28;20028;-72
2023/06/04 05:09:53;;;;;;;14.38;8.02;;;;;;;18.93;70.17;99745.25;5039389;28;20029;-72
2023/06/04 05:12:18;;;;;;;17.60;8.03;;;;;;;19.01;69.73;99752.03;5039378;28;20041;-71
2023/06/04 05:14:45;;;;;;;13.60;6.53;;;;;;;19.12;69.55;99752.38;5039148;28;20093;-71
2023/06/04 05:17:12;;;;;;;13.63;7.25;;;;;;;19.26;69.07;99748.19;5021351;28;20065;-72
2023/06/04 05:19:39;;;;;;;14.52;7.65;;;;;;;19.36;68.64;99746.78;5039286;28;20033;-72
2023/06/04 05:22:05;;;;;;;13.75;7.18;;;;;;;19.32;68.84;99750.53;5038918;28;20029;-71
2023/06/04 05:24:32;;;;;;;13.45;6.65;;;;;;;19.21;69.33;99757.28;5021091;28;20386;-72
2023/06/04 05:26:58;;;;;;;11.73;6.47;;;;;;;19.24;69.21;99763.41;5038611;28;20021;-72
2023/06/04 05:29:24;;;;;;;19.58;7.55;;;;;;;19.20;69.19;99760.00;5039026;28;20116;-72
2023/06/04 05:31:50;;;;;;;15.45;7.82;;;;;;;19.14;69.47;99757.66;5038873;28;20033;-72
2023/06/04 05:34:16;;;;;;;14.47;7.50;;;;;;;19.06;69.67;99761.56;5039055;28;20026;-72
2023/06/04 05:36:44;;;;;;;13.63;7.68;;;;;;;18.93;70.13;99763.91;5040184;28;20099;-72
2023/06/04 05:39:10;;;;;;;15.25;7.90;;;;;;;18.88;70.39;99773.91;5048136;28;20055;-72
2023/06/04 05:41:36;;;;;;;13.75;7.00;;;;;;;18.87;70.29;99769.50;5038642;28;20793;-70
2023/06/04 05:44:04;;;;;;;13.70;7.13;;;;;;;18.83;70.17;99775.94;5038906;28;20517;-71
2023/06/04 05:46:29;;;;;;;14.20;6.65;;;;;;;18.68;70.64;99771.28;5020794;28;20032;-72
2023/06/04 05:48:55;;;;;;;17.10;8.13;;;;;;;18.65;70.87;99781.16;5038949;28;20033;-71
2023/06/04 05:51:21;;;;;;;13.90;6.90;;;;;;;18.68;70.72;99784.63;5038531;28;20029;-71
2023/06/04 05:53:47;;;;;;;14.27;7.35;;;;;;;18.72;70.63;99786.25;5038727;28;20036;-71
2023/06/04 05:56:13;;;;;;;12.57;6.97;;;;;;;18.73;70.81;99787.97;5038693;28;20040;-71
2023/06/04 05:58:38;;;;;;;14.32;7.05;;;;;;;18.75;70.77;99786.94;5038456;28;20397;-71
2023/06/04 06:01:04;;;;;;;16.47;8.17;;;;;;;18.80;70.77;99789.41;5039434;28;20034;-71
2023/06/04 06:03:30;;;;;;;13.23;8.48;;;;;;;18.82;70.81;99790.22;5038428;28;20030;-71
2023/06/04 06:05:57;;;;;;;15.70;7.90;;;;;;;18.75;71.23;99783.44;5038278;28;20084;-72
2023/06/04 06:08:23;;;;;;;17.77;7.82;;;;;;;18.71;71.46;99792.50;5038394;28;20032;-71
2023/06/04 06:10:49;;;;;;;17.53;8.53;;;;;;;18.68;71.71;99792.63;5020236;28;20033;-71
2023/06/04 06:13:15;;;;;;;17.30;8.30;;;;;;;18.69;71.42;99789.91;5038340;28;20025;-71
2023/06/04 06:15:41;;;;;;;18.75;8.75;;;;;;;18.69;71.70;99797.03;5020571;28;20067;-71
2023/06/04 06:18:07;;;;;;;14.30;7.70;;;;;;;18.74;71.32;99789.72;5038118;28;20021;-71
2023/06/04 06:20:33;;;;;;;15.27;7.60;;;;;;;18.79;71.34;99791.19;5025699;28;20791;-70
2023/06/04 06:23:06;;;;;;;11.60;6.73;;;;;;;18.87;71.04;99792.66;5037538;28;20033;-71
2023/06/04 06:25:31;;;;;;;14.15;8.35;;;;;;;18.97;71.06;99790.44;5018205;28;20097;-72
2023/06/04 06:27:57;;;;;;;13.85;7.88;;;;;;;19.03;70.94;99791.03;5038127;28;20508;-71
2023/06/04 06:30:23;;;;;;;14.70;7.63;;;;;;;19.10;70.65;99791.63;5037451;28;20025;-71
2023/06/04 06:32:49;;;;;;;15.82;7.80;;;;;;;19.16;70.60;99793.13;5037852;28;20036;-71
2023/06/04 06:35:16;;;;;;;13.30;7.43;;;;;;;19.22;70.53;99795.50;5037852;28;20571;-71
2023/06/04 06:37:43;;;;;;;15.05;7.20;;;;;;;19.30;70.37;99795.16;5037537;28;20047;-71
2023/06/04 06:40:09;;;;;;;13.23;7.85;;;;;;;19.40;70.20;99808.91;5037550;28;20087;-71
2023/06/04 06:42:35;;;;;;;18.08;7.63;;;;;;;19.50;69.97;99797.72;5020199;28;20366;-71
2023/06/04 06:45:00;;;;;;;13.37;8.83;;;;;;;19.65;69.84;99806.78;5019582;28;20037;-71
2023/06/04 06:47:26;;;;;;;15.38;7.80;;;;;;;19.84;68.84;99800.53;5019270;28;20601;-71
2023/06/04 06:49:51;;;;;;;12.33;7.30;;;;;;;19.95;68.61;99797.34;5037430;28;20033;-71
2023/06/04 06:52:19;;;;;;;14.40;7.77;;;;;;;20.07;68.41;99796.69;5037615;28;20553;-71
2023/06/04 06:54:46;;;;;;;13.10;7.13;;;;;;;20.07;68.65;99804.72;5037338;28;20021;-71
2023/06/04 06:57:11;;;;;;;12.88;6.57;;;;;;;20.15;68.20;99804.34;5037582;28;20030;-71
2023/06/04 06:59:37;;;;;;;12.80;7.83;;;;;;;20.12;68.53;99814.31;5037577;28;20025;-71
2023/06/04 07:02:03;;;;;;;12.73;7.97;;;;;;;20.13;68.24;99806.22;5038889;28;20041;-71
2023/06/04 07:04:29;;;;;;;9.20;6.22;;;;;;;20.27;68.12;99805.50;5019779;28;20040;-71
2023/06/04 07:06:54;;;;;;;11.27;6.63;;;;;;;20.42;67.31;99800.31;5019312;28;20029;-71
2023/06/04 07:09:20;;;;;;;11.73;6.33;;;;;;;20.68;66.99;99796.22;5037170;28;20083;-71
2023/06/04 07:11:45;;;;;;;14.38;6.90;;;;;;;20.92;66.32;99799.44;5037338;28;20028;-71
2023/06/04 07:14:11;;;;;;;10.87;6.20;;;;;;;21.29;65.31;99799.19;5037230;28;20029;-71
2023/06/04 07:16:36;;;;;;;11.97;6.83;;;;;;;21.52;64.92;99797.88;5037085;28;20029;-70
2023/06/04 07:19:02;;;;;;;13.35;7.00;;;;;;;21.65;64.42;99794.53;5036708;28;20086;-71
2023/06/04 07:21:28;;;;;;;10.33;5.40;;;;;;;21.90;64.22;99795.78;5036933;28;20406;-71
2023/06/04 07:23:53;;;;;;;12.75;6.38;;;;;;;22.00;63.83;99794.25;5036971;28;20036;-71
2023/06/04 07:26:19;;;;;;;14.03;6.60;;;;;;;22.06;63.36;99793.91;5034534;28;20033;-71
2023/06/04 07:28:45;;;;;;;14.52;6.57;;;;;;;22.08;63.25;99794.69;5019133;28;20031;-71
2023/06/04 07:31:10;;;;;;;11.17;5.70;;;;;;;21.88;63.25;99798.53;5019499;28;20034;-71
2023/06/04 07:33:43;;;;;;;13.10;5.97;;;;;;;21.77;63.69;99798.31;5037249;28;20028;-71
2023/06/04 07:36:13;;;;;;;12.10;6.37;;;;;;;21.87;63.19;99795.97;5036945;28;20116;-71
2023/06/04 07:38:38;;;;;;;9.98;6.43;;;;;;;22.05;62.82;99800.22;5037046;28;20033;-71
2023/06/04 07:41:04;;;;;;;13.40;6.20;;;;;;;22.25;62.07;99800.00;5037039;28;20032;-71
2023/06/04 07:43:29;;;;;;;9.02;6.13;;;;;;;22.32;62.06;99807.56;5018908;28;20048;-71
2023/06/04 07:45:55;;;;;;;14.97;5.97;;;;;;;22.50;61.61;99800.25;5036738;28;20037;-71
2023/06/04 07:48:20;;;;;;;10.37;5.07;;;;;;;22.65;61.38;99798.44;5019303;28;20049;-71
2023/06/04 07:50:46;;;;;;;9.75;5.90;;;;;;;22.78;60.99;99797.66;5018936;28;20138;-71
2023/06/04 07:53:11;;;;;;;11.87;5.37;;;;;;;22.93;59.81;99802.06;5036738;28;20474;-71
2023/06/04 07:55:37;;;;;;;9.35;4.80;;;;;;;23.04;60.02;99792.47;5037044;28;20025;-71
2023/06/04 07:58:05;;;;;;;10.80;5.17;;;;;;;23.28;60.06;99797.25;5037100;28;20033;-71
2023/06/04 08:00:31;;;;;;;7.75;4.88;;;;;;;23.55;59.26;99796.41;5040056;28;20052;-71
2023/06/04 08:02:56;;;;;;;8.70;4.80;;;;;;;23.70;58.59;99791.84;5042449;28;20494;-71
2023/06/04 08:05:23;;;;;;;8.80;4.20;;;;;;;23.95;57.95;99791.03;5041450;28;20037;-71
2023/06/04 08:07:48;;;;;;;7.82;4.22;;;;;;;23.98;57.52;99790.81;5040638;28;20043;-71
2023/06/04 08:10:14;;;;;;;8.33;4.80;;;;;;;24.15;56.85;99784.34;5041218;28;20057;-71
2023/06/04 08:12:39;;;;;;;10.20;4.60;;;;;;;24.30;56.88;99789.63;5040950;28;20033;-71
2023/06/04 08:15:06;;;;;;;8.63;4.77;;;;;;;24.43;56.48;99785.13;5040629;28;20041;-71
2023/06/04 08:17:31;;;;;;;10.32;4.50;;;;;;;24.59;55.40;99781.31;5040886;28;20029;-71
2023/06/04 08:19:57;;;;;;;9.60;4.47;;;;;;;24.70;55.29;99783.25;5040654;28;20037;-71
2023/06/04 08:22:22;;;;;;;7.60;4.00;;;;;;;24.73;54.76;99783.91;5022618;28;20029;-71
2023/06/04 08:24:48;;;;;;;9.43;4.20;;;;;;;24.51;53.94;99780.03;5040307;28;20043;-71
2023/06/04 08:27:14;;;;;;;10.10;3.87;;;;;;;24.58;54.16;99777.78;5040547;28;20105;-71
2023/06/04 08:29:40;;;;;;;7.20;4.20;;;;;;;24.69;53.92;99784.22;5019632;28;20437;-71
2023/06/04 08:32:07;;;;;;;9.68;4.15;;;;;;;24.85;53.32;99792.13;5038954;28;20060;-71
2023/06/04 08:34:33;;;;;;;7.53;4.25;;;;;;;25.01;52.71;99791.88;5040601;28;20083;-71
2023/06/04 08:36:58;;;;;;;10.90;4.20;;;;;;;25.14;52.99;99792.69;5040435;28;20033;-71
2023/06/04 08:39:24;;;;;;;9.07;4.38;;;;;;;25.24;53.29;99792.88;5040448;28;20095;-71
2023/06/04 08:41:54;;;;;;;8.00;3.80;;;;;;;25.27;52.61;99791.81;5022518;28;20037;-71
2023/06/04 08:44:20;;;;;;;8.40;3.53;;;;;;;25.44;51.82;99791.44;5040491;28;20397;-71
2023/06/04 08:46:50;;;;;;;8.05;3.83;;;;;;;25.72;51.33;99791.22;5039696;28;20057;-71
2023/06/04 08:49:18;;;;;;;8.30;4.32;;;;;;;25.91;51.36;99790.66;5040456;28;20068;-71
2023/06/04 08:51:44;;;;;;;7.00;4.03;;;;;;;26.02;51.46;99793.41;5042134;28;20025;-71
2023/06/04 08:54:11;;;;;;;7.45;4.30;;;;;;;26.05;50.84;99787.78;5046683;28;20033;-71
2023/06/04 08:56:37;;;;;;;10.57;3.97;;;;;;;26.03;50.63;99791.56;5022300;28;20037;-71
2023/06/04 08:59:06;;;;;;;8.65;3.88;;;;;;;26.21;51.05;99797.44;5040569;28;20029;-71
2023/06/04 09:01:33;;;;;;;7.47;3.63;;;;;;;26.39;50.13;99791.56;5041265;28;20044;-71
2023/06/04 09:04:01;;;;;;;7.65;3.55;;;;;;;26.56;49.65;99791.09;5040043;28;20029;-71
2023/06/04 09:06:27;;;;;;;9.35;4.10;;;;;;;26.63;48.64;99791.47;5021758;28;20037;-71
2023/06/04 09:08:58;;;;;;;9.68;3.97;;;;;;;26.64;49.15;99788.63;5021519;28;20115;-71
2023/06/04 09:11:26;;;;;;;6.72;3.60;;;;;;;26.84;48.96;99788.03;5038710;28;20433;-71
2023/06/04 09:13:53;;;;;;;6.97;3.70;;;;;;;26.96;48.40;99783.53;5039449;28;20022;-71
2023/06/04 09:16:19;;;;;;;7.05;3.72;;;;;;;26.88;48.04;99786.84;5021544;28;20033;-71
2023/06/04 09:18:45;;;;;;;7.22;3.65;;;;;;;26.98;48.47;99784.25;5021401;28;20033;-71
2023/06/04 09:21:10;;;;;;;8.40;4.10;;;;;;;27.12;47.65;99785.84;5038926;28;20049;-71
2023/06/04 09:23:46;;;;;;;6.90;3.53;;;;;;;27.19;47.34;99782.50;5039080;28;20037;-71
2023/06/04 09:26:11;;;;;;;6.83;3.23;;;;;;;27.38;47.22;99786.41;5039044;28;20374;-71
2023/06/04 09:28:49;;;;;;;6.88;3.45;;;;;;;27.25;47.47;99785.69;5038933;28;20041;-69
2023/06/04 09:31:16;;;;;;;7.68;3.50;;;;;;;27.17;47.30;99778.19;5030866;28;20115;-70
2023/06/04 09:33:45;;;;;;;8.70;3.85;;;;;;;26.97;46.88;99783.38;5038799;28;20025;-70
2023/06/04 09:36:11;;;;;;;8.80;4.10;;;;;;;27.06;46.97;99779.94;5038777;28;20025;-70
2023/06/04 09:38:37;;;;;;;6.68;3.17;;;;;;;27.29;47.26;99779.91;5021285;28;20118;-70
2023/06/04 09:41:04;;;;;;;6.10;3.58;;;;;;;27.45;46.70;99790.31;5038928;28;20041;-70
2023/06/04 09:43:32;;;;;;;6.95;3.20;;;;;;;27.70;46.52;99779.31;5038989;28;20029;-71
2023/06/04 09:46:11;;;;;;;8.57;3.83;;;;;;;27.71;46.57;99781.03;5038717;28;20089;-70
2023/06/04 09:48:37;;;;;;;7.83;3.57;;;;;;;27.75;46.49;99777.94;5008913;28;20053;-70
2023/06/04 09:51:13;;;;;;;6.18;3.60;;;;;;;27.77;46.19;99777.81;5038508;28;20033;-70
2023/06/04 09:53:39;;;;;;;8.77;4.75;;;;;;;28.00;45.66;99780.41;5020853;28;20037;-70
2023/06/04 09:56:06;;;;;;;6.60;3.83;;;;;;;27.96;45.62;99770.81;5038431;28;20512;-70
2023/06/04 09:58:32;;;;;;;8.23;3.70;;;;;;;28.03;44.69;99774.75;5038515;28;20033;-71
2023/06/04 10:01:01;;;;;;;9.23;3.50;;;;;;;27.99;45.85;99776.84;5021648;28;20036;-71
2023/06/04 10:03:36;;;;;;;6.93;3.28;;;;;;;27.99;45.40;99776.84;5038621;28;20033;-71
2023/06/04 10:06:06;;;;;;;9.18;3.60;;;;;;;28.04;44.54;99771.88;5038111;28;20032;-71
2023/06/04 10:08:36;;;;;;;6.70;3.30;;;;;;;28.21;44.13;99767.78;5037902;28;20030;-71
2023/06/04 10:11:05;;;;;;;6.47;3.40;;;;;;;28.36;43.68;99773.72;5038186;28;20040;-71
2023/06/04 10:13:38;;;;;;;8.60;3.20;;;;;;;28.32;42.90;99774.94;5020394;28;20116;-71
2023/06/04 10:16:07;;;;;;;6.70;3.50;;;;;;;28.21;43.16;99766.91;5025364;28;20056;-71
2023/06/04 10:18:33;;;;;;;8.20;3.80;;;;;;;28.02;43.16;99768.44;5038061;28;20441;-71
2023/06/04 10:20:59;;;;;;;6.75;3.50;;;;;;;28.07;43.74;99777.03;5037956;28;20039;-71
2023/06/04 10:23:24;;;;;;;10.05;6.20;;;;;;;28.24;43.29;99766.63;5018034;28;20125;-71
2023/06/04 10:25:53;;;;;;;6.23;3.03;;;;;;;28.11;43.07;99771.38;5038170;28;20057;-70
2023/06/04 10:28:20;;;;;;;8.75;5.35;;;;;;;27.98;42.99;99767.00;5037840;28;20593;-71
2023/06/04 10:30:50;;;;;;;25.90;19.52;;;;;;;28.07;43.13;99768.91;5037365;28;20036;-71
2023/06/04 10:33:23;;;;;;;47.17;40.10;;;;;;;28.09;43.50;99763.38;5023277;28;20017;-71
2023/06/04 10:35:48;;;;;;;22.63;11.40;;;;;;;28.03;43.31;99764.75;5037734;28;20381;-71
2023/06/04 10:38:16;;;;;;;8.73;4.70;;;;;;;28.22;43.78;99763.22;5037713;28;20056;-71
2023/06/04 10:40:42;;;;;;;8.60;3.88;;;;;;;28.52;43.26;99766.94;5037548;28;20484;-71
2023/06/04 10:43:11;;;;;;;6.72;3.05;;;;;;;28.87;42.96;99752.16;5019505;28;20037;-71
2023/06/04 10:45:37;;;;;;;6.78;3.40;;;;;;;29.20;41.95;99754.66;5037436;28;20409;-71
2023/06/04 10:48:05;;;;;;;5.90;2.70;;;;;;;29.42;41.71;99756.28;5019553;28;20064;-71
2023/06/04 10:50:33;;;;;;;6.50;2.75;;;;;;;29.54;40.82;99748.00;5037254;28;20108;-71
2023/06/04 10:53:02;;;;;;;7.13;3.42;;;;;;;29.61;40.70;99752.72;5037167;28;20033;-71
2023/06/04 10:55:28;;;;;;;7.10;3.20;;;;;;;29.53;40.22;99747.16;5019663;28;20071;-71
2023/06/04 10:57:55;;;;;;;6.47;3.03;;;;;;;29.50;40.45;99751.00;5019326;28;20029;-71
2023/06/04 11:00:22;;;;;;;5.95;3.17;;;;;;;29.63;40.46;99753.44;5019647;28;20033;-71
2023/06/04 11:02:57;;;;;;;7.82;3.25;;;;;;;29.50;40.41;99748.28;5020068;28;20040;-71
2023/06/04 11:05:22;;;;;;;5.72;2.95;;;;;;;29.15;40.86;99754.19;5037050;28;20033;-71
2023/06/04 11:07:49;;;;;;;6.57;3.30;;;;;;;28.91;41.32;99748.16;5036972;28;20025;-71
2023/06/04 11:10:16;;;;;;;5.97;3.25;;;;;;;28.74;41.26;99748.78;5037239;28;20068;-71
2023/06/04 11:12:46;;;;;;;7.53;3.03;;;;;;;28.70;41.45;99750.03;5019253;28;20061;-71
2023/06/04 11:15:12;;;;;;;6.53;2.92;;;;;;;28.80;41.18;99740.13;5036952;28;20084;-71
2023/06/04 11:17:48;;;;;;;9.50;5.10;;;;;;;29.07;40.13;99735.94;5037158;28;20029;-71
2023/06/04 11:20:19;;;;;;;7.78;2.72;;;;;;;29.26;39.80;99734.25;5036898;28;20083;-71
2023/06/04 11:22:55;;;;;;;6.55;2.97;;;;;;;29.46;39.35;99741.44;5036773;28;20040;-71
2023/06/04 11:25:22;;;;;;;5.20;2.80;;;;;;;29.75;38.81;99732.44;5034573;28;20017;-71
2023/06/04 11:27:49;;;;;;;5.50;2.70;;;;;;;29.58;39.08;99728.59;5016634;28;20105;-70